sensor_id;sensor_type;location;lat;lon;timestamp;pressure;altitude;pressure_sealevel;temperature;humidity
74778;BME280;63298;53.164;8.610;2024-01-30T02:27:33;102813.41;;;5.87;76.28
74778;BME280;63298;53.164;8.610;2024-01-30T02:30:02;102807.09;;;5.87;77.15
74778;BME280;63298;53.164;8.610;2024-01-30T02:32:50;102803.22;;;5.80;76.27
74778;BME280;63298;53.164;8.610;2024-01-30T02:35:15;102804.16;;;5.88;77.38
74778;BME280;63298;53.164;8.610;2024-01-30T02:37:51;102791.41;;;5.79;77.01
74778;BME280;63298;53.164;8.610;2024-01-30T02:40:20;102800.16;;;5.83;77.28
74778;BME280;63298;53.164;8.610;2024-01-30T02:42:45;102786.41;;;5.75;76.89
74778;BME280;63298;53.164;8.610;2024-01-30T02:45:14;102781.94;;;5.74;77.48
74778;BME280;63298;53.164;8.610;2024-01-30T02:48:02;102787.41;;;5.74;77.03
74778;BME280;63298;53.164;8.610;2024-01-30T02:50:30;102791.41;;;5.79;76.74
74778;BME280;63298;53.164;8.610;2024-01-30T02:53:27;102797.88;;;5.78;77.08
74778;BME280;63298;53.164;8.610;2024-01-30T02:56:32;102786.25;;;5.76;77.34
74778;BME280;63298;53.164;8.610;2024-01-30T03:02:10;102786.06;;;5.78;76.57
74778;BME280;63298;53.164;8.610;2024-01-30T03:04:41;102784.19;;;5.78;77.66
74778;BME280;63298;53.164;8.610;2024-01-30T03:07:38;102762.38;;;5.69;76.79
74778;BME280;63298;53.164;8.610;2024-01-30T03:10:04;102768.56;;;5.71;77.25
74778;BME280;63298;53.164;8.610;2024-01-30T03:12:42;102770.28;;;5.72;76.76
74778;BME280;63298;53.164;8.610;2024-01-30T03:15:07;102765.69;;;5.72;76.74
74778;BME280;63298;53.164;8.610;2024-01-30T03:17:33;102771.38;;;5.79;77.01
74778;BME280;63298;53.164;8.610;2024-01-30T03:20:07;102762.75;;;5.74;77.01
74778;BME280;63298;53.164;8.610;2024-01-30T03:22:38;102765.03;;;5.78;77.43
74778;BME280;63298;53.164;8.610;2024-01-30T03:25:09;102755.88;;;5.70;77.93
74778;BME280;63298;53.164;8.610;2024-01-30T03:27:40;102756.91;;;5.69;77.34
74778;BME280;63298;53.164;8.610;2024-01-30T03:30:11;102774.09;;;5.79;77.87
74778;BME280;63298;53.164;8.610;2024-01-30T03:32:37;102769.34;;;5.81;77.05
74778;BME280;63298;53.164;8.610;2024-01-30T03:35:05;102757.28;;;5.74;77.52
74778;BME280;63298;53.164;8.610;2024-01-30T03:37:33;102753.22;;;5.78;77.31
74778;BME280;63298;53.164;8.610;2024-01-30T03:40:13;102754.25;;;5.77;77.80
74778;BME280;63298;53.164;8.610;2024-01-30T03:42:42;102765.88;;;5.79;78.05
74778;BME280;63298;53.164;8.610;2024-01-30T03:45:10;102751.66;;;5.75;77.42
74778;BME280;63298;53.164;8.610;2024-01-30T03:47:36;102741.03;;;5.72;77.89
74778;BME280;63298;53.164;8.610;2024-01-30T03:50:02;102748.94;;;5.75;78.04
74778;BME280;63298;53.164;8.610;2024-01-30T03:52:28;102750.47;;;5.78;78.10
74778;BME280;63298;53.164;8.610;2024-01-30T03:54:53;102745.84;;;5.78;77.53
74778;BME280;63298;53.164;8.610;2024-01-30T03:57:19;102743.28;;;5.77;77.65
74778;BME280;63298;53.164;8.610;2024-01-30T03:59:50;102742.97;;;5.80;77.39
74778;BME280;63298;53.164;8.610;2024-01-30T04:02:20;102738.69;;;5.77;78.01
74778;BME280;63298;53.164;8.610;2024-01-30T04:04:46;102747.09;;;5.84;78.06
74778;BME280;63298;53.164;8.610;2024-01-30T04:07:17;102746.09;;;5.85;77.37
74778;BME280;63298;53.164;8.610;2024-01-30T04:09:43;102739.22;;;5.81;77.61
74778;BME280;63298;53.164;8.610;2024-01-30T04:12:08;102741.47;;;5.85;77.52
74778;BME280;63298;53.164;8.610;2024-01-30T04:14:38;102730.66;;;5.84;77.69
74778;BME280;63298;53.164;8.610;2024-01-30T04:17:03;102729.28;;;5.80;77.58
74778;BME280;63298;53.164;8.610;2024-01-30T04:19:31;102724.66;;;5.80;78.24
74778;BME280;63298;53.164;8.610;2024-01-30T04:22:00;102728.94;;;5.83;78.31
74778;BME280;63298;53.164;8.610;2024-01-30T04:24:25;102731.00;;;5.81;78.39
74778;BME280;63298;53.164;8.610;2024-01-30T04:26:54;102726.69;;;5.78;78.36
74778;BME280;63298;53.164;8.610;2024-01-30T04:29:22;102725.69;;;5.79;77.67
74778;BME280;63298;53.164;8.610;2024-01-30T04:31:48;102726.69;;;5.78;78.32
74778;BME280;63298;53.164;8.610;2024-01-30T04:34:15;102729.13;;;5.81;78.78
74778;BME280;63298;53.164;8.610;2024-01-30T04:36:44;102731.88;;;5.81;78.81
74778;BME280;63298;53.164;8.610;2024-01-30T04:39:09;102727.25;;;5.82;78.29
74778;BME280;63298;53.164;8.610;2024-01-30T04:41:38;102723.28;;;5.76;78.14
74778;BME280;63298;53.164;8.610;2024-01-30T04:44:04;102720.53;;;5.76;79.03
74778;BME280;63298;53.164;8.610;2024-01-30T04:46:29;102717.94;;;5.75;78.02
74778;BME280;63298;53.164;8.610;2024-01-30T04:49:18;102722.41;;;5.76;78.83
74778;BME280;63298;53.164;8.610;2024-01-30T04:51:43;102721.41;;;5.77;78.67
74778;BME280;63298;53.164;8.610;2024-01-30T04:54:09;102715.19;;;5.75;78.60
74778;BME280;63298;53.164;8.610;2024-01-30T04:57:11;102718.31;;;5.80;78.27
74778;BME280;63298;53.164;8.610;2024-01-30T04:59:50;102706.28;;;5.73;78.17
74778;BME280;63298;53.164;8.610;2024-01-30T05:02:15;102716.41;;;5.72;78.82
74778;BME280;63298;53.164;8.610;2024-01-30T05:04:41;102717.06;;;5.74;78.43
74778;BME280;63298;53.164;8.610;2024-01-30T05:07:10;102708.81;;;5.66;78.27
74778;BME280;63298;53.164;8.610;2024-01-30T05:09:35;102703.16;;;5.68;77.98
74778;BME280;63298;53.164;8.610;2024-01-30T05:12:01;102716.06;;;5.75;78.35
74778;BME280;63298;53.164;8.610;2024-01-30T05:14:26;102712.78;;;5.72;79.21
74778;BME280;63298;53.164;8.610;2024-01-30T05:16:52;102704.88;;;5.69;78.53
74778;BME280;63298;53.164;8.610;2024-01-30T05:19:17;102720.69;;;5.75;78.38
74778;BME280;63298;53.164;8.610;2024-01-30T05:21:50;102709.34;;;5.70;79.14
74778;BME280;63298;53.164;8.610;2024-01-30T05:24:16;102710.91;;;5.72;78.63
74778;BME280;63298;53.164;8.610;2024-01-30T05:26:41;102692.19;;;5.68;78.55
74778;BME280;63298;53.164;8.610;2024-01-30T05:29:07;102696.66;;;5.69;78.61
74778;BME280;63298;53.164;8.610;2024-01-30T05:31:33;102697.69;;;5.68;79.41
74778;BME280;63298;53.164;8.610;2024-01-30T05:33:59;102718.28;;;5.72;78.78
74778;BME280;63298;53.164;8.610;2024-01-30T05:36:24;102705.75;;;5.69;79.16
74778;BME280;63298;53.164;8.610;2024-01-30T05:38:50;102694.94;;;5.68;78.74
74778;BME280;63298;53.164;8.610;2024-01-30T05:41:15;102703.72;;;5.71;78.96
74778;BME280;63298;53.164;8.610;2024-01-30T05:43:42;102695.66;;;5.70;79.04
74778;BME280;63298;53.164;8.610;2024-01-30T05:46:08;102691.53;;;5.65;78.73
74778;BME280;63298;53.164;8.610;2024-01-30T05:51:58;102695.66;;;5.70;79.50
74778;BME280;63298;53.164;8.610;2024-01-30T05:54:23;102701.28;;;5.68;79.29
74778;BME280;63298;53.164;8.610;2024-01-30T05:56:52;102701.28;;;5.68;79.33
74778;BME280;63298;53.164;8.610;2024-01-30T05:59:17;102704.88;;;5.69;79.38
74778;BME280;63298;53.164;8.610;2024-01-30T06:01:48;102710.06;;;5.72;79.41
74778;BME280;63298;53.164;8.610;2024-01-30T06:04:14;102698.41;;;5.70;79.14
74778;BME280;63298;53.164;8.610;2024-01-30T06:06:39;102702.72;;;5.72;79.24
74778;BME280;63298;53.164;8.610;2024-01-30T06:09:05;102710.22;;;5.70;78.95
74778;BME280;63298;53.164;8.610;2024-01-30T06:11:31;102705.59;;;5.71;78.96
74778;BME280;63298;53.164;8.610;2024-01-30T06:13:56;102703.47;;;5.64;79.58
74778;BME280;63298;53.164;8.610;2024-01-30T06:16:22;102701.75;;;5.63;79.63
74778;BME280;63298;53.164;8.610;2024-01-30T06:18:50;102700.75;;;5.64;79.53
74778;BME280;63298;53.164;8.610;2024-01-30T06:21:16;102690.50;;;5.67;79.83
74778;BME280;63298;53.164;8.610;2024-01-30T06:23:41;102696.84;;;5.67;79.87
74778;BME280;63298;53.164;8.610;2024-01-30T06:26:10;102692.91;;;5.70;79.11
74778;BME280;63298;53.164;8.610;2024-01-30T06:28:35;102679.72;;;5.65;80.04
74778;BME280;63298;53.164;8.610;2024-01-30T06:31:01;102693.78;;;5.70;80.13
74778;BME280;63298;53.164;8.610;2024-01-30T06:33:35;102691.19;;;5.69;79.42
74778;BME280;63298;53.164;8.610;2024-01-30T10:08:48;102669.06;;;7.95;79.31
74778;BME280;63298;53.164;8.610;2024-01-30T10:11:27;102673.34;;;7.97;80.01
74778;BME280;63298;53.164;8.610;2024-01-30T10:17:01;102653.75;;;8.00;79.08
74778;BME280;63298;53.164;8.610;2024-01-30T10:19:56;102657.53;;;7.99;79.60
74778;BME280;63298;53.164;8.610;2024-01-30T10:25:23;102658.88;;;8.11;79.31
74778;BME280;63298;53.164;8.610;2024-01-30T10:27:54;102652.84;;;8.16;79.80
74778;BME280;63298;53.164;8.610;2024-01-30T10:30:22;102650.94;;;8.24;79.68
74778;BME280;63298;53.164;8.610;2024-01-30T10:33:08;102652.84;;;8.32;79.82
74778;BME280;63298;53.164;8.610;2024-01-30T10:35:48;102649.38;;;8.38;79.00
74778;BME280;63298;53.164;8.610;2024-01-30T10:38:21;102648.00;;;8.42;78.99
74778;BME280;63298;53.164;8.610;2024-01-30T10:40:56;102656.03;;;8.52;79.02
74778;BME280;63298;53.164;8.610;2024-01-30T10:43:50;102647.72;;;8.60;78.78
74778;BME280;63298;53.164;8.610;2024-01-30T10:46:27;102646.84;;;8.68;79.89
74778;BME280;63298;53.164;8.610;2024-01-30T10:49:00;102647.81;;;8.75;79.17
74778;BME280;63298;53.164;8.610;2024-01-30T10:51:31;102631.63;;;8.80;78.82
74778;BME280;63298;53.164;8.610;2024-01-30T10:54:00;102627.28;;;8.85;78.98
74778;BME280;63298;53.164;8.610;2024-01-30T10:56:29;102634.44;;;8.94;79.33
74778;BME280;63298;53.164;8.610;2024-01-30T10:59:03;102629.63;;;8.96;79.27
74778;BME280;63298;53.164;8.610;2024-01-30T11:02:08;102626.31;;;9.01;78.76
74778;BME280;63298;53.164;8.610;2024-01-30T11:04:43;102640.41;;;9.06;78.60
74778;BME280;63298;53.164;8.610;2024-01-30T11:07:31;102639.69;;;9.12;79.43
74778;BME280;63298;53.164;8.610;2024-01-30T11:16:35;102646.09;;;9.27;79.17
74778;BME280;63298;53.164;8.610;2024-01-30T11:19:14;102642.09;;;9.30;79.09
74778;BME280;63298;53.164;8.610;2024-01-30T11:27:44;102647.09;;;9.49;79.02
74778;BME280;63298;53.164;8.610;2024-01-30T11:30:27;102636.94;;;9.49;78.42
74778;BME280;63298;53.164;8.610;2024-01-30T11:33:09;102637.94;;;9.57;78.51
74778;BME280;63298;53.164;8.610;2024-01-30T11:35:42;102636.00;;;9.57;78.21
74778;BME280;63298;53.164;8.610;2024-01-30T11:38:10;102634.78;;;9.60;78.90
74778;BME280;63298;53.164;8.610;2024-01-30T11:40:43;102636.13;;;9.64;79.05
74778;BME280;63298;53.164;8.610;2024-01-30T11:43:19;102623.19;;;9.64;78.95
74778;BME280;63298;53.164;8.610;2024-01-30T11:45:51;102617.69;;;9.64;78.32
74778;BME280;63298;53.164;8.610;2024-01-30T11:51:48;102623.09;;;9.72;79.43
74778;BME280;63298;53.164;8.610;2024-01-30T11:57:24;102615.13;;;9.77;79.26
74778;BME280;63298;53.164;8.610;2024-01-30T12:00:06;102619.44;;;9.80;78.51
74778;BME280;63298;53.164;8.610;2024-01-30T12:02:37;102631.22;;;9.88;79.60
74778;BME280;63298;53.164;8.610;2024-01-30T12:05:18;102626.00;;;9.93;78.70
74778;BME280;63298;53.164;8.610;2024-01-30T12:08:13;102625.81;;;9.95;79.19
74778;BME280;63298;53.164;8.610;2024-01-30T12:11:16;102616.69;;;9.94;79.39
74778;BME280;63298;53.164;8.610;2024-01-30T12:14:03;102628.00;;;10.00;78.35
74778;BME280;63298;53.164;8.610;2024-01-30T12:16:34;102629.03;;;9.98;79.11
74778;BME280;63298;53.164;8.610;2024-01-30T12:19:26;102627.31;;;9.97;79.83
74778;BME280;63298;53.164;8.610;2024-01-30T12:24:55;102622.09;;;10.03;79.33
74778;BME280;63298;53.164;8.610;2024-01-30T12:27:31;102630.19;;;10.04;79.99
74778;BME280;63298;53.164;8.610;2024-01-30T12:30:17;102630.88;;;10.06;79.67
74778;BME280;63298;53.164;8.610;2024-01-30T12:32:50;102622.59;;;10.06;79.50
74778;BME280;63298;53.164;8.610;2024-01-30T12:35:26;102629.63;;;10.09;80.36
74778;BME280;63298;53.164;8.610;2024-01-30T12:37:58;102626.00;;;10.08;80.12
74778;BME280;63298;53.164;8.610;2024-01-30T12:40:40;102623.72;;;10.12;79.67
74778;BME280;63298;53.164;8.610;2024-01-30T12:46:38;102607.47;;;10.17;79.54
74778;BME280;63298;53.164;8.610;2024-01-30T12:49:23;102605.00;;;10.22;80.02
74778;BME280;63298;53.164;8.610;2024-01-30T12:58:00;102599.59;;;10.28;79.28
74778;BME280;63298;53.164;8.610;2024-01-30T13:00:28;102610.03;;;10.33;79.75
74778;BME280;63298;53.164;8.610;2024-01-30T13:06:33;102609.00;;;10.34;79.60
74778;BME280;63298;53.164;8.610;2024-01-30T14:58:42;102590.66;;;10.62;80.54
74778;BME280;63298;53.164;8.610;2024-01-30T15:01:44;102591.34;;;10.64;80.32
74778;BME280;63298;53.164;8.610;2024-01-30T15:04:12;102593.06;;;10.65;80.58
74778;BME280;63298;53.164;8.610;2024-01-30T15:06:38;102593.06;;;10.65;80.71
74778;BME280;63298;53.164;8.610;2024-01-30T15:09:04;102599.91;;;10.69;79.92
74778;BME280;63298;53.164;8.610;2024-01-30T15:11:29;102600.94;;;10.68;80.49
74778;BME280;63298;53.164;8.610;2024-01-30T15:13:55;102592.66;;;10.68;80.31
74778;BME280;63298;53.164;8.610;2024-01-30T15:16:30;102606.06;;;10.71;80.16
74778;BME280;63298;53.164;8.610;2024-01-30T15:19:00;102592.66;;;10.68;79.48
74778;BME280;63298;53.164;8.610;2024-01-30T15:21:28;102602.25;;;10.72;79.91
74778;BME280;63298;53.164;8.610;2024-01-30T15:24:04;102592.47;;;10.70;80.05
74778;BME280;63298;53.164;8.610;2024-01-30T15:26:36;102592.66;;;10.68;80.20
74778;BME280;63298;53.164;8.610;2024-01-30T15:29:08;102596.28;;;10.69;80.21
74778;BME280;63298;53.164;8.610;2024-01-30T15:32:02;102598.84;;;10.70;79.72
74778;BME280;63298;53.164;8.610;2024-01-30T15:34:32;102600.94;;;10.68;79.49
74778;BME280;63298;53.164;8.610;2024-01-30T15:37:04;102610.94;;;10.69;79.34
74778;BME280;63298;53.164;8.610;2024-01-30T15:39:32;102618.34;;;10.69;79.79
74778;BME280;63298;53.164;8.610;2024-01-30T15:42:10;102613.22;;;10.66;79.56
74778;BME280;63298;53.164;8.610;2024-01-30T15:44:39;102618.72;;;10.66;79.52
74778;BME280;63298;53.164;8.610;2024-01-30T15:47:04;102621.31;;;10.67;79.97
74778;BME280;63298;53.164;8.610;2024-01-30T15:49:30;102623.78;;;10.62;79.68
74778;BME280;63298;53.164;8.610;2024-01-30T17:14:44;102717.63;;;10.18;78.77
74778;BME280;63298;53.164;8.610;2024-01-30T17:17:14;102720.72;;;10.15;78.37
74778;BME280;63298;53.164;8.610;2024-01-30T17:19:40;102733.84;;;10.13;78.67
74778;BME280;63298;53.164;8.610;2024-01-30T17:22:05;102734.22;;;10.10;78.49
74778;BME280;63298;53.164;8.610;2024-01-30T17:24:34;102725.66;;;10.05;78.13
74778;BME280;63298;53.164;8.610;2024-01-30T17:27:00;102729.63;;;10.03;78.12
74778;BME280;63298;53.164;8.610;2024-01-30T17:29:25;102722.09;;;9.96;77.33
74778;BME280;63298;53.164;8.610;2024-01-30T17:31:51;102745.31;;;10.02;77.92
74778;BME280;63298;53.164;8.610;2024-01-30T17:34:19;102741.97;;;9.92;77.13
74778;BME280;63298;53.164;8.610;2024-01-30T17:36:47;102738.53;;;9.90;76.73
74778;BME280;63298;53.164;8.610;2024-01-30T17:39:13;102755.56;;;9.93;77.40
74778;BME280;63298;53.164;8.610;2024-01-30T17:41:38;102758.16;;;9.95;76.97
74778;BME280;63298;53.164;8.610;2024-01-30T17:44:04;102759.56;;;9.91;76.94
74778;BME280;63298;53.164;8.610;2024-01-30T17:46:32;102766.59;;;9.93;76.83
74778;BME280;63298;53.164;8.610;2024-01-30T17:49:00;102766.97;;;9.90;77.10
74778;BME280;63298;53.164;8.610;2024-01-30T17:51:26;102765.63;;;9.86;77.42
74778;BME280;63298;53.164;8.610;2024-01-30T17:53:51;102773.03;;;9.86;76.93
74778;BME280;63298;53.164;8.610;2024-01-30T17:56:21;102785.09;;;9.85;76.50
74778;BME280;63298;53.164;8.610;2024-01-30T17:58:49;102779.47;;;9.78;76.72
74778;BME280;63298;53.164;8.610;2024-01-30T18:01:14;102782.28;;;9.70;77.26
74778;BME280;63298;53.164;8.610;2024-01-30T18:03:40;102767.66;;;9.70;77.63
74778;BME280;63298;53.164;8.610;2024-01-30T18:06:06;102784.78;;;9.57;79.39
74778;BME280;63298;53.164;8.610;2024-01-30T18:08:34;102805.06;;;9.64;79.26
74778;BME280;63298;53.164;8.610;2024-01-30T18:11:02;102782.41;;;9.54;80.33
74778;BME280;63298;53.164;8.610;2024-01-30T18:13:27;102780.03;;;9.51;80.60
74778;BME280;63298;53.164;8.610;2024-01-30T18:15:56;102778.47;;;9.48;79.64
74778;BME280;63298;53.164;8.610;2024-01-30T18:18:21;102780.25;;;9.41;80.89
74778;BME280;63298;53.164;8.610;2024-01-30T18:20:47;102795.00;;;9.48;80.67
74778;BME280;63298;53.164;8.610;2024-01-30T18:23:15;102791.75;;;9.45;80.75
74778;BME280;63298;53.164;8.610;2024-01-30T18:25:41;102777.38;;;9.35;81.87
74778;BME280;63298;53.164;8.610;2024-01-30T18:28:09;102800.03;;;9.45;80.83
74778;BME280;63298;53.164;8.610;2024-01-30T18:30:58;102791.44;;;9.40;81.49
74778;BME280;63298;53.164;8.610;2024-01-30T18:33:24;102794.59;;;9.37;81.23
74778;BME280;63298;53.164;8.610;2024-01-30T18:35:52;102806.97;;;9.33;82.84
74778;BME280;63298;53.164;8.610;2024-01-30T18:38:17;102798.03;;;9.31;82.19
74778;BME280;63298;53.164;8.610;2024-01-30T18:41:20;102815.22;;;9.41;81.96
74778;BME280;63298;53.164;8.610;2024-01-30T18:44:42;102813.63;;;9.46;82.27
74778;BME280;63298;53.164;8.610;2024-01-30T18:48:03;102811.94;;;9.37;83.05
74778;BME280;63298;53.164;8.610;2024-01-30T18:50:29;102826.72;;;9.44;82.65
74778;BME280;63298;53.164;8.610;2024-01-30T18:53:17;102817.03;;;9.48;81.56
74778;BME280;63298;53.164;8.610;2024-01-30T18:56:17;102815.22;;;9.41;81.50
74778;BME280;63298;53.164;8.610;2024-01-30T19:08:56;102820.25;;;9.29;83.94
74778;BME280;63298;53.164;8.610;2024-01-30T19:14:55;102833.00;;;9.30;83.04
74778;BME280;63298;53.164;8.610;2024-01-30T19:17:34;102854.31;;;9.36;83.28
74778;BME280;63298;53.164;8.610;2024-01-30T19:26:49;102841.47;;;9.21;85.02
74778;BME280;63298;53.164;8.610;2024-01-30T19:35:36;102857.88;;;8.98;85.14
74778;BME280;63298;53.164;8.610;2024-01-30T20:19:32;102901.66;;;8.60;86.55
74778;BME280;63298;53.164;8.610;2024-01-30T20:28:22;102924.03;;;8.57;86.49
74778;BME280;63298;53.164;8.610;2024-01-30T20:38:31;102945.19;;;8.57;86.05
74778;BME280;63298;53.164;8.610;2024-01-30T20:55:34;102964.41;;;8.33;85.83
74778;BME280;63298;53.164;8.610;2024-01-30T20:59:00;102981.44;;;8.36;85.13
74778;BME280;63298;53.164;8.610;2024-01-30T22:19:44;103094.72;;;7.72;86.26
74778;BME280;63298;53.164;8.610;2024-01-30T22:22:59;103082.25;;;7.60;86.25
74778;BME280;63298;53.164;8.610;2024-01-30T22:43:11;103110.97;;;7.65;85.64
74778;BME280;63298;53.164;8.610;2024-01-30T22:53:02;103130.38;;;7.64;85.76
74778;BME280;63298;53.164;8.610;2024-01-30T22:55:50;103145.66;;;7.66;85.69
74778;BME280;63298;53.164;8.610;2024-01-30T22:58:21;103144.75;;;7.58;86.10
74778;BME280;63298;53.164;8.610;2024-01-30T23:01:00;103150.09;;;7.59;86.35
74778;BME280;63298;53.164;8.610;2024-01-30T23:03:42;103155.13;;;7.46;85.40
74778;BME280;63298;53.164;8.610;2024-01-30T23:09:53;103175.78;;;7.32;84.95
